Time;durP1;ratioP1;P1;durP2;ratioP2;P2;SDS_P1;SDS_P2;PMS_P1;PMS_P2;Temp;Humidity;BMP_temperature;BMP_pressure;BME280_temperature;BME280_humidity;BME280_pressure;Samples;Min_cycle;Max_cycle;Signal;HPM_P1;HPM_P2
2022/05/10 00:08:15;;;;;;;6.07;3.38;;;7.50;99.90;;;;;;21065088;28;20028;-50
2022/05/10 00:18:20;;;;;;;7.55;3.88;;;7.40;99.90;;;;;;21064470;28;20028;-52
2022/05/10 00:28:23;;;;;;;7.70;3.60;;;7.30;99.90;;;;;;21046957;28;20160;-60
2022/05/10 00:38:32;;;;;;;13.77;3.75;;;7.20;99.90;;;;;;21046430;28;20129;-49
2022/05/10 00:48:43;;;;;;;11.32;4.47;;;7.10;99.90;;;;;;21061739;28;20040;-49
2022/05/10 00:59:08;;;;;;;8.25;4.43;;;7.10;99.90;;;;;;21063003;28;20048;-48
2022/05/10 01:09:38;;;;;;;8.27;4.43;;;7.00;99.90;;;;;;21062078;28;20554;-47
2022/05/10 01:19:43;;;;;;;11.67;4.87;;;6.90;99.90;;;;;;21059028;28;20040;-47
2022/05/10 01:30:26;;;;;;;8.35;4.75;;;7.00;99.90;;;;;;21060379;28;20035;-51
2022/05/10 01:40:37;;;;;;;6.75;4.60;;;6.80;99.90;;;;;;20766148;28;20073;-48
2022/05/10 01:50:54;;;;;;;7.40;4.90;;;6.80;99.90;;;;;;20782648;28;20596;-50
2022/05/10 02:01:19;;;;;;;9.90;4.93;;;6.70;99.90;;;;;;20791637;28;20155;-48
2022/05/10 02:11:23;;;;;;;13.05;4.65;;;6.70;99.90;;;;;;20706175;28;20537;-48
2022/05/10 02:21:39;;;;;;;8.43;4.72;;;6.80;99.90;;;;;;20928091;28;20719;-51
2022/05/10 02:42:15;;;;;;;10.65;4.60;;;6.80;99.90;;;;;;20990490;27;20457;-49
2022/05/10 02:52:20;;;;;;;10.45;5.00;;;6.60;99.90;;;;;;21195669;27;20047;-48
2022/05/10 03:02:28;;;;;;;8.60;4.95;;;6.70;99.90;;;;;;21164623;27;20031;-49
2022/05/10 03:12:30;;;;;;;10.25;4.78;;;6.80;99.90;;;;;;21164241;27;20039;-47
2022/05/10 03:22:34;;;;;;;10.68;4.93;;;6.80;99.90;;;;;;21139701;27;20035;-47
2022/05/10 03:32:36;;;;;;;15.80;5.50;;;6.70;99.90;;;;;;21207797;27;20101;-49
2022/05/10 03:42:47;;;;;;;8.75;4.68;;;6.80;99.90;;;;;;21155346;27;20039;-49
2022/05/10 03:52:50;;;;;;;8.00;4.47;;;6.90;99.90;;;;;;21172867;27;20475;-50
2022/05/10 04:02:55;;;;;;;6.65;4.43;;;7.20;99.90;;;;;;21159954;27;20043;-47
2022/05/10 04:12:58;;;;;;;10.63;4.45;;;7.10;99.90;;;;;;21164009;27;20056;-48
2022/05/10 04:23:02;;;;;;;9.23;4.60;;;7.00;99.90;;;;;;21173053;27;20084;-48
2022/05/10 04:33:04;;;;;;;8.85;3.67;;;7.10;99.90;;;;;;21185341;27;20031;-57
2022/05/10 04:43:06;;;;;;;10.07;3.92;;;7.20;99.90;;;;;;21162167;27;20489;-52
2022/05/10 04:53:09;;;;;;;8.63;3.92;;;7.20;99.90;;;;;;21188381;27;20088;-50
2022/05/10 05:03:12;;;;;;;10.10;4.55;;;7.20;99.90;;;;;;21146748;27;20069;-51
2022/05/10 05:13:16;;;;;;;10.02;5.25;;;7.40;99.90;;;;;;21176103;27;20080;-49
2022/05/10 05:23:21;;;;;;;8.52;4.93;;;7.70;99.90;;;;;;21175638;27;20152;-50
2022/05/10 05:33:24;;;;;;;11.63;5.53;;;7.90;99.90;;;;;;21156553;27;20039;-48
2022/05/10 05:43:26;;;;;;;10.80;5.38;;;8.20;99.90;;;;;;21162335;27;20051;-49
2022/05/10 05:53:29;;;;;;;8.85;5.13;;;8.60;99.90;;;;;;21202681;27;20460;-49
2022/05/10 06:03:32;;;;;;;13.27;5.57;;;9.00;99.90;;;;;;21227331;27;20039;-48
2022/05/10 06:13:37;;;;;;;14.90;5.07;;;9.40;99.90;;;;;;21191530;27;20039;-49
2022/05/10 06:23:40;;;;;;;6.82;4.15;;;9.80;99.90;;;;;;21179600;27;20100;-50
2022/05/10 06:33:42;;;;;;;5.05;2.47;;;13.20;99.90;;;;;;21175609;27;20035;-52
2022/05/10 06:43:45;;;;;;;4.55;2.90;;;16.90;99.90;;;;;;21192013;27;20039;-61
2022/05/10 06:53:54;;;;;;;7.60;2.53;;;20.10;99.90;;;;;;21150278;28;20035;-57
2022/05/10 07:03:59;;;;;;;5.35;3.13;;;22.10;95.60;;;;;;21168121;27;20147;-52
2022/05/10 07:14:01;;;;;;;7.53;3.33;;;22.20;92.90;;;;;;21151575;27;20032;-63
2022/05/10 07:24:04;;;;;;;7.53;3.72;;;22.00;93.40;;;;;;21213748;27;20039;-53
2022/05/10 07:34:07;;;;;;;4.50;2.70;;;21.80;93.80;;;;;;21166708;27;20096;-52
2022/05/10 07:44:11;;;;;;;6.28;3.13;;;21.70;92.80;;;;;;21199865;27;20092;-54
2022/05/10 07:54:13;;;;;;;8.43;3.20;;;21.60;93.30;;;;;;21168512;27;20037;-65
2022/05/10 08:04:16;;;;;;;6.72;3.60;;;22.20;94.60;;;;;;21150296;27;20039;-64
2022/05/10 08:14:18;;;;;;;6.05;3.30;;;22.60;94.50;;;;;;21149503;27;20035;-64
2022/05/10 08:24:26;;;;;;;7.70;3.30;;;22.30;93.60;;;;;;21174587;27;20064;-65
2022/05/10 08:34:28;;;;;;;5.07;3.40;;;22.00;93.90;;;;;;21171424;27;20035;-65
2022/05/10 08:44:38;;;;;;;6.50;3.20;;;22.30;94.50;;;;;;21209709;27;20081;-65
2022/05/10 08:54:44;;;;;;;6.72;3.92;;;22.50;92.80;;;;;;21214561;27;20496;-65
2022/05/10 09:05:01;;;;;;;7.40;3.60;;;22.60;92.10;;;;;;21156523;27;20414;-65
2022/05/10 09:15:10;;;;;;;4.43;3.40;;;22.90;93.70;;;;;;21183329;27;20045;-66
2022/05/10 09:25:39;;;;;;;7.68;4.13;;;23.60;91.60;;;;;;21159211;27;20039;-60
2022/05/10 09:35:54;;;;;;;6.05;3.80;;;23.70;92.30;;;;;;21131409;28;20031;-65
2022/05/10 09:46:18;;;;;;;6.65;3.45;;;24.00;92.10;;;;;;21157606;28;20047;-67
2022/05/10 09:56:24;;;;;;;7.55;3.67;;;24.20;93.90;;;;;;21161406;28;20067;-68
2022/05/10 10:06:26;;;;;;;9.98;4.38;;;24.10;90.40;;;;;;21175126;28;20043;-66
2022/05/10 10:16:35;;;;;;;7.82;4.57;;;24.20;92.00;;;;;;21125837;28;20492;-65
2022/05/10 10:26:45;;;;;;;9.23;4.88;;;24.60;90.20;;;;;;21170143;27;20031;-64
2022/05/10 10:37:04;;;;;;;12.25;4.30;;;24.20;90.20;;;;;;21144903;27;20095;-54
2022/05/10 10:47:16;;;;;;;9.32;4.95;;;23.10;91.10;;;;;;21193552;27;20047;-63
2022/05/10 10:57:21;;;;;;;12.43;5.95;;;21.20;93.00;;;;;;21184031;27;20035;-64
2022/05/10 11:07:49;;;;;;;14.38;5.07;;;22.20;95.70;;;;;;21163411;27;20138;-65
2022/05/10 11:18:09;;;;;;;10.13;4.20;;;23.10;95.50;;;;;;21194320;27;20039;-64
2022/05/10 11:28:25;;;;;;;6.70;3.78;;;23.10;92.70;;;;;;21004275;28;20201;-64
2022/05/10 11:38:50;;;;;;;7.63;3.08;;;23.10;93.40;;;;;;20984641;28;20095;-64
2022/05/10 11:49:29;;;;;;;7.15;3.20;;;23.20;92.50;;;;;;20940937;28;20160;-65
2022/05/10 11:59:35;;;;;;;5.72;2.75;;;23.60;93.10;;;;;;20979006;28;20094;-66
2022/05/10 12:10:05;;;;;;;5.88;2.63;;;24.10;91.10;;;;;;21061606;28;20085;-64
2022/05/10 12:30:35;;;;;;;10.55;2.90;;;22.00;92.10;;;;;;21064370;28;20451;-64
2022/05/10 12:40:41;;;;;;;7.72;3.70;;;22.10;93.50;;;;;;21071523;27;20043;-64
2022/05/10 12:51:10;;;;;;;7.43;4.30;;;22.30;90.80;;;;;;21153924;27;20364;-64
2022/05/10 13:01:16;;;;;;;10.30;4.05;;;22.50;92.30;;;;;;21166654;27;20047;-63
2022/05/10 13:11:21;;;;;;;9.52;4.35;;;22.80;90.90;;;;;;21163107;27;20432;-63
2022/05/10 13:21:26;;;;;;;11.30;5.47;;;22.50;92.80;;;;;;21145331;27;20039;-63
2022/05/10 13:31:35;;;;;;;9.45;5.28;;;22.60;92.40;;;;;;21124009;28;20044;-63
2022/05/10 13:41:38;;;;;;;8.52;5.18;;;22.90;92.00;;;;;;21203873;27;20112;-63
2022/05/10 13:51:57;;;;;;;9.00;5.25;;;22.80;91.00;;;;;;21166929;28;20035;-63
2022/05/10 14:02:08;;;;;;;10.52;5.43;;;22.60;91.30;;;;;;21123631;28;20052;-63
2022/05/10 14:12:19;;;;;;;7.65;5.00;;;22.60;91.20;;;;;;21110110;28;20052;-55
2022/05/10 14:22:27;;;;;;;10.57;5.43;;;22.90;90.60;;;;;;21083168;28;20128;-62
2022/05/10 14:32:34;;;;;;;8.73;5.70;;;23.10;90.20;;;;;;21092177;27;20052;-63
2022/05/10 14:42:38;;;;;;;10.50;5.50;;;23.20;89.80;;;;;;21220485;27;20039;-63
2022/05/10 14:52:41;;;;;;;15.00;6.57;;;23.30;88.30;;;;;;21158805;27;20065;-62
2022/05/10 15:02:43;;;;;;;18.08;6.50;;;23.50;87.50;;;;;;21185594;27;20061;-62
2022/05/10 15:13:04;;;;;;;10.35;5.68;;;23.80;87.20;;;;;;21189127;27;20373;-58
2022/05/10 15:23:06;;;;;;;10.48;5.55;;;23.70;86.10;;;;;;21157398;27;20039;-56
2022/05/10 15:33:10;;;;;;;10.90;5.20;;;23.10;85.20;;;;;;21195451;27;20031;-61
2022/05/10 15:43:13;;;;;;;10.43;6.07;;;23.50;84.50;;;;;;21170170;27;20097;-61
2022/05/10 15:53:16;;;;;;;11.10;6.10;;;23.20;81.80;;;;;;21195204;27;20092;-61
2022/05/10 16:03:18;;;;;;;9.40;5.90;;;22.40;85.40;;;;;;21166753;27;20072;-61
2022/05/10 16:13:21;;;;;;;10.50;5.78;;;21.90;84.70;;;;;;21213219;27;20060;-60
2022/05/10 16:23:23;;;;;;;10.27;6.47;;;20.40;86.90;;;;;;21172817;27;20085;-59
2022/05/10 16:33:33;;;;;;;13.82;6.45;;;18.40;91.00;;;;;;21113383;27;20458;-59
2022/05/10 16:43:36;;;;;;;9.90;5.95;;;16.70;92.90;;;;;;21166676;27;20043;-60
2022/05/10 16:53:38;;;;;;;10.32;5.60;;;15.60;94.60;;;;;;21181411;28;20039;-59
2022/05/10 17:03:41;;;;;;;11.10;5.95;;;15.00;96.60;;;;;;21169526;28;20057;-54
2022/05/10 17:13:44;;;;;;;12.32;6.30;;;14.40;98.80;;;;;;21147909;28;20085;-53
2022/05/10 17:23:47;;;;;;;15.82;6.05;;;13.80;99.90;;;;;;21142521;28;20043;-60
2022/05/10 17:33:50;;;;;;;13.20;6.90;;;13.20;99.90;;;;;;21165602;28;20035;-59
2022/05/10 17:43:53;;;;;;;16.92;7.75;;;12.70;99.90;;;;;;21134890;28;1526308;-58
2022/05/10 17:53:59;;;;;;;14.13;6.35;;;12.40;99.90;;;;;;21211556;28;20064;-59
2022/05/10 18:04:02;;;;;;;13.30;6.65;;;12.20;99.90;;;;;;21046526;28;20084;-58
2022/05/10 18:14:05;;;;;;;13.95;6.68;;;11.90;99.90;;;;;;20975483;28;20060;-58
2022/05/10 18:24:08;;;;;;;15.32;6.97;;;11.60;99.90;;;;;;20967242;28;20082;-59
2022/05/10 18:34:11;;;;;;;13.20;6.95;;;11.30;99.90;;;;;;20991100;28;20047;-58
2022/05/10 18:44:16;;;;;;;18.58;7.72;;;10.90;99.90;;;;;;21215796;27;20104;-59
2022/05/10 18:54:19;;;;;;;15.38;8.25;;;10.70;99.90;;;;;;21139339;28;20097;-59
2022/05/10 19:04:22;;;;;;;21.17;7.45;;;10.50;99.90;;;;;;21147292;27;20104;-58
2022/05/10 19:14:28;;;;;;;15.60;8.23;;;10.60;99.90;;;;;;21162511;27;20314;-59
2022/05/10 19:24:34;;;;;;;12.60;6.68;;;10.30;99.90;;;;;;21217015;27;20039;-58
2022/05/10 19:34:38;;;;;;;13.82;7.22;;;10.10;99.90;;;;;;21143168;27;20863;-58
2022/05/10 19:44:45;;;;;;;14.35;7.38;;;10.00;99.90;;;;;;21178204;27;20439;-51
2022/05/10 19:54:48;;;;;;;12.98;7.55;;;10.00;99.90;;;;;;21174267;27;20039;-52
2022/05/10 20:15:12;;;;;;;15.48;7.70;;;9.80;99.90;;;;;;21209265;27;20092;-49
2022/05/10 20:25:15;;;;;;;14.98;7.72;;;9.70;99.90;;;;;;21134441;27;20031;-52
2022/05/10 20:35:21;;;;;;;18.23;7.93;;;9.70;99.90;;;;;;21135841;27;20509;-58
2022/05/10 20:45:24;;;;;;;14.73;8.10;;;9.60;99.90;;;;;;21151943;27;20434;-53
2022/05/10 20:55:28;;;;;;;16.67;7.40;;;9.60;99.90;;;;;;21151793;27;20477;-53
2022/05/10 21:05:30;;;;;;;12.65;7.13;;;9.60;99.90;;;;;;21129166;28;20088;-49
2022/05/10 21:15:34;;;;;;;15.50;7.88;;;9.70;99.90;;;;;;21191259;27;20039;-52
2022/05/10 21:25:55;;;;;;;14.60;7.65;;;9.50;99.90;;;;;;21153528;27;20166;-58
2022/05/10 21:36:00;;;;;;;14.13;7.35;;;9.50;99.90;;;;;;21165597;28;20031;-52
2022/05/10 21:46:05;;;;;;;11.73;7.25;;;9.40;99.90;;;;;;21198642;28;20055;-58
2022/05/10 21:56:08;;;;;;;15.68;8.88;;;9.30;99.90;;;;;;21207178;28;20418;-50
2022/05/10 22:06:11;;;;;;;15.80;7.50;;;9.20;99.90;;;;;;21188706;28;20031;-58
2022/05/10 22:16:13;;;;;;;16.05;8.82;;;9.20;99.90;;;;;;21159942;27;20031;-52
2022/05/10 22:26:16;;;;;;;17.13;8.63;;;9.10;99.90;;;;;;21146180;27;20039;-52
2022/05/10 22:36:19;;;;;;;18.95;8.73;;;9.10;99.90;;;;;;21187155;27;20437;-53
2022/05/10 22:46:21;;;;;;;14.45;8.00;;;9.10;99.90;;;;;;21202789;27;20119;-53
2022/05/10 22:56:24;;;;;;;14.38;7.47;;;9.20;99.90;;;;;;21189554;27;20135;-52
2022/05/10 23:06:27;;;;;;;15.05;7.75;;;9.10;99.90;;;;;;21208937;27;20344;-54
2022/05/10 23:16:31;;;;;;;16.85;7.93;;;9.10;99.90;;;;;;21198267;27;20138;-58
2022/05/10 23:26:35;;;;;;;16.88;7.25;;;9.20;99.90;;;;;;21187412;27;20103;-50
2022/05/10 23:36:39;;;;;;;13.65;7.53;;;9.10;99.90;;;;;;21194568;27;20099;-58
2022/05/10 23:46:46;;;;;;;11.38;6.95;;;8.90;99.90;;;;;;21150963;27;20048;-49
2022/05/10 23:56:51;;;;;;;9.40;6.53;;;8.90;99.90;;;;;;21134535;28;20437;-49
